Time;durP1;ratioP1;P1;durP2;ratioP2;P2;SDS_P1;SDS_P2;PMS_P1;PMS_P2;Temp;Humidity;BMP_temperature;BMP_pressure;BME280_temperature;BME280_humidity;BME280_pressure;Samples;Min_cycle;Max_cycle;Signal;HPM_P1;HPM_P2
2023/02/18 00:01:57;;;;;;;;;;;7.60;99.90;;;;;;5032113;28;20414;-84
2023/02/18 00:04:23;;;;;;;0.70;0.70;;;7.20;99.90;;;;;;5027382;28;19928;-84
2023/02/18 00:06:50;;;;;;;0.50;0.50;;;7.30;99.90;;;;;;5045470;28;20049;-85
2023/02/18 00:09:16;;;;;;;0.60;0.60;;;7.20;99.90;;;;;;5063326;28;20059;-84
2023/02/18 00:11:43;;;;;;;0.70;0.70;;;7.40;99.90;;;;;;5037015;28;20045;-84
2023/02/18 00:14:12;;;;;;;0.60;0.60;;;7.20;99.90;;;;;;5016697;28;20124;-85
2023/02/18 00:16:38;;;;;;;0.40;0.40;;;7.10;99.90;;;;;;5034937;28;20045;-86
2023/02/18 00:19:05;;;;;;;2.10;1.17;;;7.60;99.90;;;;;;5047150;28;20049;-85
2023/02/18 00:21:33;;;;;;;0.82;0.82;;;7.30;99.90;;;;;;5048157;28;20076;-86
2023/02/18 00:23:59;;;;;;;0.60;0.60;;;7.10;99.90;;;;;;5043585;28;20078;-84
2023/02/18 00:26:25;;;;;;;0.60;0.60;;;7.20;99.90;;;;;;5035033;28;20053;-84
2023/02/18 00:28:51;;;;;;;1.08;0.98;;;7.30;99.90;;;;;;5031278;28;20087;-84
2023/02/18 00:31:20;;;;;;;0.60;0.60;;;7.20;99.90;;;;;;5041866;28;20143;-85
2023/02/18 00:33:46;;;;;;;0.52;0.52;;;7.20;99.90;;;;;;5027115;28;20040;-84
2023/02/18 00:36:14;;;;;;;0.68;0.68;;;7.10;99.90;;;;;;5017959;28;20077;-86
2023/02/18 00:38:48;;;;;;;0.60;0.60;;;7.20;99.90;;;;;;5048638;28;20045;-85
2023/02/18 00:41:22;;;;;;;0.40;0.40;;;7.10;99.90;;;;;;5031155;28;20099;-89
2023/02/18 00:43:47;;;;;;;0.77;0.77;;;6.90;99.90;;;;;;5055692;28;20037;-87
2023/02/18 00:46:14;;;;;;;1.35;0.60;;;7.20;99.90;;;;;;5025882;28;20045;-86
2023/02/18 00:48:39;;;;;;;0.50;0.50;;;7.50;99.90;;;;;;5042868;28;20041;-86
2023/02/18 00:51:06;;;;;;;0.50;0.50;;;7.20;99.90;;;;;;5030318;28;20435;-86
2023/02/18 00:53:33;;;;;;;0.60;0.60;;;6.80;99.90;;;;;;5048585;28;20047;-86
2023/02/18 00:55:59;;;;;;;0.50;0.50;;;6.80;99.90;;;;;;5025001;28;20045;-84
2023/02/18 00:58:26;;;;;;;0.60;0.60;;;6.70;99.90;;;;;;5012961;28;20088;-84
2023/02/18 01:00:53;;;;;;;0.60;0.60;;;7.50;99.90;;;;;;5017868;28;20037;-85
2023/02/18 01:03:19;;;;;;;0.60;0.60;;;6.70;99.90;;;;;;5044689;28;20049;-85
2023/02/18 01:05:44;;;;;;;0.50;0.50;;;6.80;99.90;;;;;;5027677;28;20060;-86
2023/02/18 01:08:11;;;;;;;0.40;0.40;;;6.80;99.90;;;;;;5045179;28;20517;-85
2023/02/18 01:10:43;;;;;;;0.57;0.57;;;6.80;99.90;;;;;;5047913;28;20091;-85
2023/02/18 01:13:10;;;;;;;0.50;0.50;;;6.70;99.90;;;;;;5031946;28;20082;-84
2023/02/18 01:15:37;;;;;;;0.50;0.50;;;6.60;99.90;;;;;;5042291;28;20056;-86
2023/02/18 01:18:07;;;;;;;0.57;0.57;;;6.70;99.90;;;;;;5053344;28;20720;-84
2023/02/18 01:20:34;;;;;;;0.52;0.52;;;6.70;99.90;;;;;;5044080;28;20124;-86
2023/02/18 01:23:00;;;;;;;0.50;0.50;;;6.70;99.90;;;;;;5051241;28;20043;-85
2023/02/18 01:25:26;;;;;;;0.50;0.50;;;6.90;99.90;;;;;;5048658;28;20036;-84
2023/02/18 01:27:52;;;;;;;1.90;1.77;;;6.90;99.90;;;;;;5050069;28;20032;-85
2023/02/18 01:30:19;;;;;;;0.60;0.60;;;6.80;99.90;;;;;;5052007;28;20033;-85
2023/02/18 01:32:45;;;;;;;0.55;0.55;;;7.00;99.90;;;;;;5043157;28;20077;-83
2023/02/18 01:35:14;;;;;;;0.60;0.60;;;7.30;99.90;;;;;;5037885;28;20084;-83
2023/02/18 01:37:40;;;;;;;0.60;0.60;;;7.20;99.90;;;;;;5026731;28;20052;-87
2023/02/18 01:40:08;;;;;;;0.40;0.40;;;7.10;99.90;;;;;;5048572;28;20041;-87
2023/02/18 01:42:33;;;;;;;0.70;0.70;;;7.20;99.90;;;;;;5014976;28;20116;-87
2023/02/18 01:45:36;;;;;;;2.25;2.15;;;7.30;99.90;;;;;;5032835;28;20546;-87
2023/02/18 01:48:22;;;;;;;0.43;0.43;;;7.20;99.90;;;;;;5024507;28;20541;-86
2023/02/18 01:51:11;;;;;;;0.50;0.50;;;7.10;99.90;;;;;;5029865;28;20029;-86
2023/02/18 01:53:58;;;;;;;0.40;0.40;;;7.10;99.90;;;;;;5050732;28;20112;-86
2023/02/18 01:56:31;;;;;;;0.40;0.40;;;7.30;99.90;;;;;;5052402;28;20036;-85
2023/02/18 01:59:00;;;;;;;0.60;0.60;;;7.40;99.90;;;;;;5033401;28;20125;-87
2023/02/18 02:01:29;;;;;;;0.50;0.50;;;7.20;99.90;;;;;;5043720;28;20504;-85
2023/02/18 02:03:55;;;;;;;0.60;0.60;;;7.10;99.90;;;;;;5050025;28;20039;-84
2023/02/18 02:06:22;;;;;;;0.65;0.65;;;7.50;99.90;;;;;;5047373;28;20495;-85
2023/02/18 02:08:52;;;;;;;0.60;0.60;;;7.20;99.90;;;;;;5025424;28;20666;-84
2023/02/18 02:11:41;;;;;;;0.50;0.50;;;7.20;99.90;;;;;;5041011;28;20045;-84
2023/02/18 02:14:21;;;;;;;0.60;0.60;;;7.00;99.90;;;;;;5030239;28;20040;-84
2023/02/18 02:17:15;;;;;;;0.68;0.68;;;7.10;99.90;;;;;;5035032;28;20079;-84
2023/02/18 02:19:44;;;;;;;0.60;0.60;;;7.20;99.90;;;;;;5042870;28;20036;-84
2023/02/18 02:22:43;;;;;;;0.50;0.50;;;7.40;99.90;;;;;;5041282;28;20044;-84
2023/02/18 02:25:36;;;;;;;0.60;0.60;;;7.20;99.90;;;;;;5038468;28;20041;-83
2023/02/18 02:28:10;;;;;;;1.05;1.05;;;7.10;99.90;;;;;;5048674;28;20421;-85
2023/02/18 02:30:54;;;;;;;0.40;0.40;;;7.00;99.90;;;;;;5049129;28;20517;-84
2023/02/18 02:33:28;;;;;;;0.50;0.50;;;7.10;99.90;;;;;;5050210;28;20041;-85
2023/02/18 02:36:14;;;;;;;0.50;0.50;;;7.40;99.90;;;;;;5045476;28;20040;-84
2023/02/18 02:38:51;;;;;;;0.80;0.80;;;7.00;99.90;;;;;;5046748;28;20502;-83
2023/02/18 02:41:41;;;;;;;0.50;0.50;;;6.90;99.90;;;;;;5033932;28;20049;-84
2023/02/18 02:44:20;;;;;;;0.90;0.90;;;7.20;99.90;;;;;;5049127;28;20049;-86
2023/02/18 02:46:51;;;;;;;0.40;0.40;;;7.30;99.90;;;;;;5046290;28;20494;-83
2023/02/18 02:49:40;;;;;;;0.90;0.90;;;7.20;99.90;;;;;;5052925;28;20443;-84
2023/02/18 02:52:25;;;;;;;0.50;0.50;;;7.00;99.90;;;;;;5042437;28;20059;-86
2023/02/18 02:54:51;;;;;;;0.60;0.60;;;7.00;99.90;;;;;;5048670;28;20037;-84
2023/02/18 02:57:17;;;;;;;0.85;0.85;;;7.10;99.90;;;;;;5038736;28;20133;-84
2023/02/18 02:59:48;;;;;;;0.50;0.50;;;7.20;99.90;;;;;;5056117;28;20090;-84
2023/02/18 03:02:33;;;;;;;0.50;0.50;;;7.10;99.90;;;;;;5027696;28;20044;-84
2023/02/18 03:05:18;;;;;;;0.63;0.63;;;7.00;99.90;;;;;;5037986;28;20142;-85
2023/02/18 03:08:05;;;;;;;0.50;0.50;;;7.50;99.90;;;;;;5023553;28;20060;-85
2023/02/18 03:11:04;;;;;;;0.70;0.70;;;7.10;99.90;;;;;;5038023;28;20102;-85
2023/02/18 03:13:45;;;;;;;0.45;0.45;;;7.00;99.90;;;;;;5033314;28;20371;-85
2023/02/18 03:16:39;;;;;;;0.60;0.60;;;7.10;99.90;;;;;;5020262;28;20053;-86
2023/02/18 03:19:18;;;;;;;2.47;1.77;;;7.20;99.90;;;;;;5031529;28;20059;-85
2023/02/18 03:21:50;;;;;;;0.80;0.80;;;7.20;99.90;;;;;;5032233;28;20850;-85
2023/02/18 03:24:22;;;;;;;0.50;0.50;;;7.40;99.90;;;;;;5048158;28;20055;-85
2023/02/18 03:26:56;;;;;;;0.90;0.90;;;7.20;99.90;;;;;;5044476;28;20512;-86
2023/02/18 03:29:23;;;;;;;0.68;0.68;;;7.30;99.90;;;;;;5026000;28;20040;-86
2023/02/18 03:31:51;;;;;;;;;;;7.30;99.90;;;;;;5040231;28;20037;-85
2023/02/18 03:34:24;;;;;;;1.75;1.17;;;7.50;99.90;;;;;;5048168;28;19994;-85
2023/02/18 03:36:50;;;;;;;0.60;0.60;;;7.80;99.90;;;;;;5030272;28;20102;-85
2023/02/18 03:39:17;;;;;;;;;;;7.60;99.90;;;;;;5042337;28;20052;-85
2023/02/18 03:41:44;;;;;;;0.50;0.50;;;7.50;99.90;;;;;;5027563;28;19921;-84
2023/02/18 03:44:10;;;;;;;1.55;0.70;;;7.60;99.90;;;;;;5031164;28;20044;-84
2023/02/18 03:46:38;;;;;;;0.80;0.80;;;7.70;99.90;;;;;;5031978;28;20489;-84
2023/02/18 03:49:04;;;;;;;0.68;0.68;;;7.40;99.90;;;;;;5039544;28;20033;-84
2023/02/18 03:51:31;;;;;;;0.50;0.50;;;7.50;99.90;;;;;;5023998;28;20041;-85
2023/02/18 03:53:57;;;;;;;0.30;0.30;;;7.50;99.90;;;;;;5046037;28;20490;-85
2023/02/18 03:56:23;;;;;;;0.60;0.60;;;7.70;99.90;;;;;;5044323;28;20091;-84
2023/02/18 03:58:49;;;;;;;0.77;0.77;;;7.30;99.90;;;;;;5040209;28;20077;-85
2023/02/18 04:01:14;;;;;;;0.45;0.45;;;7.50;99.90;;;;;;5014036;28;20041;-84
2023/02/18 04:03:40;;;;;;;0.60;0.60;;;7.40;99.90;;;;;;5025539;28;20068;-84
2023/02/18 04:06:06;;;;;;;0.70;0.70;;;7.40;99.90;;;;;;5032032;28;20099;-85
2023/02/18 04:08:32;;;;;;;0.55;0.55;;;7.60;99.90;;;;;;5038388;28;20053;-85
2023/02/18 04:10:58;;;;;;;0.60;0.60;;;7.50;99.90;;;;;;5038379;28;20039;-85
2023/02/18 04:13:27;;;;;;;0.40;0.40;;;7.50;99.90;;;;;;5046407;28;20278;-85
2023/02/18 04:15:53;;;;;;;0.75;0.75;;;7.40;99.90;;;;;;5024468;28;20037;-86
2023/02/18 04:18:19;;;;;;;0.50;0.50;;;7.50;99.90;;;;;;5031441;28;20063;-85
2023/02/18 04:20:49;;;;;;;0.50;0.50;;;7.40;99.90;;;;;;5016027;28;20049;-84
2023/02/18 04:23:14;;;;;;;2.05;1.95;;;7.40;99.90;;;;;;5033832;28;20540;-84
2023/02/18 04:25:40;;;;;;;0.60;0.60;;;7.50;99.90;;;;;;5010389;28;20113;-84
2023/02/18 04:28:06;;;;;;;0.40;0.40;;;7.50;99.90;;;;;;5007912;28;20446;-86
2023/02/18 04:30:32;;;;;;;0.68;0.68;;;7.40;99.90;;;;;;5017665;28;20050;-85
2023/02/18 04:32:58;;;;;;;;;;;7.30;99.90;;;;;;5002682;28;20037;-84
2023/02/18 04:35:23;;;;;;;0.73;0.73;;;7.40;99.90;;;;;;5015026;28;19917;-83
2023/02/18 04:37:49;;;;;;;0.60;0.60;;;7.50;99.90;;;;;;5022012;28;20045;-84
2023/02/18 04:40:15;;;;;;;0.75;0.75;;;7.20;99.90;;;;;;5019088;28;20144;-85
2023/02/18 04:42:41;;;;;;;;;;;7.30;99.90;;;;;;5059615;28;20561;-85
2023/02/18 04:45:10;;;;;;;0.70;0.70;;;7.20;99.90;;;;;;5050142;28;19925;-86
2023/02/18 04:47:35;;;;;;;0.50;0.50;;;7.30;99.90;;;;;;5051808;28;20040;-85
2023/02/18 04:50:01;;;;;;;0.60;0.60;;;7.20;99.90;;;;;;5032550;28;20044;-87
2023/02/18 04:52:27;;;;;;;0.60;0.60;;;7.20;99.90;;;;;;5044852;28;20589;-85
2023/02/18 04:54:52;;;;;;;0.80;0.80;;;7.10;99.90;;;;;;5002400;28;20435;-87
2023/02/18 04:57:18;;;;;;;0.60;0.60;;;7.50;99.90;;;;;;5035102;28;20045;-87
2023/02/18 04:59:44;;;;;;;0.52;0.52;;;6.00;99.90;;;;;;5040205;28;20029;-87
2023/02/18 05:02:10;;;;;;;0.93;0.93;;;7.40;99.90;;;;;;5019691;28;20512;-85
2023/02/18 05:04:35;;;;;;;0.50;0.50;;;7.40;99.90;;;;;;5073553;28;20486;-86
2023/02/18 05:07:01;;;;;;;0.70;0.70;;;7.30;99.90;;;;;;5045529;28;20122;-85
2023/02/18 05:09:27;;;;;;;1.60;1.50;;;7.10;99.90;;;;;;5050619;28;20056;-86
2023/02/18 05:11:52;;;;;;;1.48;0.85;;;7.10;99.90;;;;;;5057188;28;20507;-85
2023/02/18 05:14:18;;;;;;;0.50;0.50;;;7.10;99.90;;;;;;5045943;28;20041;-85
2023/02/18 05:16:45;;;;;;;0.70;0.70;;;7.20;99.90;;;;;;5035497;28;20119;-86
2023/02/18 05:19:15;;;;;;;0.50;0.50;;;7.20;99.90;;;;;;5047422;28;20476;-85
2023/02/18 05:21:41;;;;;;;0.55;0.55;;;7.30;99.90;;;;;;5015788;28;20041;-84
2023/02/18 05:24:07;;;;;;;0.88;0.88;;;7.50;99.90;;;;;;5053008;28;20036;-85
2023/02/18 05:26:33;;;;;;;0.50;0.50;;;7.40;99.90;;;;;;5052025;28;20045;-86
2023/02/18 05:29:05;;;;;;;0.68;0.68;;;7.70;99.90;;;;;;5016172;28;20138;-85
2023/02/18 05:31:32;;;;;;;0.40;0.40;;;7.40;99.90;;;;;;5045888;28;20479;-86
2023/02/18 05:33:57;;;;;;;;;;;7.70;99.90;;;;;;5025017;28;20602;-86
2023/02/18 05:36:23;;;;;;;0.70;0.70;;;7.70;99.90;;;;;;5038324;28;20006;-86
2023/02/18 05:38:49;;;;;;;0.65;0.65;;;7.50;99.90;;;;;;5046971;28;20049;-86
2023/02/18 05:41:14;;;;;;;1.00;1.00;;;7.60;99.90;;;;;;5032446;28;20088;-86
2023/02/18 05:46:24;;;;;;;0.88;0.88;;;7.60;99.90;;;;;;5019951;28;20041;-86
2023/02/18 05:48:50;;;;;;;1.55;1.30;;;7.70;99.90;;;;;;5030026;28;20687;-87
2023/02/18 05:51:16;;;;;;;0.95;0.88;;;7.80;99.90;;;;;;5052916;28;20154;-86
2023/02/18 05:53:42;;;;;;;0.60;0.60;;;7.80;99.90;;;;;;5031478;28;20037;-85
2023/02/18 05:56:07;;;;;;;1.90;1.75;;;8.00;99.90;;;;;;5056743;28;20124;-86
2023/02/18 05:58:33;;;;;;;0.65;0.65;;;8.30;99.90;;;;;;5031918;28;20513;-85
2023/02/18 06:00:59;;;;;;;0.57;0.57;;;7.90;99.90;;;;;;5037157;28;20095;-85
2023/02/18 06:03:24;;;;;;;0.90;0.90;;;7.90;99.90;;;;;;5031131;28;20057;-86
2023/02/18 06:05:51;;;;;;;1.05;0.80;;;8.00;99.90;;;;;;5051307;28;20040;-85
2023/02/18 06:08:19;;;;;;;0.40;0.40;;;8.00;99.90;;;;;;5045475;28;20491;-85
2023/02/18 06:10:45;;;;;;;2.58;0.93;;;8.10;99.90;;;;;;5046538;28;20049;-86
2023/02/18 06:13:12;;;;;;;;;;;8.10;99.90;;;;;;5035903;28;20041;-85
2023/02/18 06:15:38;;;;;;;0.47;0.47;;;8.10;99.90;;;;;;5046729;28;19916;-85
2023/02/18 06:18:04;;;;;;;;;;;8.10;99.90;;;;;;5048543;28;20049;-87
2023/02/18 06:20:30;;;;;;;0.52;0.52;;;8.20;99.90;;;;;;5041810;28;19951;-87
2023/02/18 06:22:55;;;;;;;0.50;0.50;;;8.30;99.90;;;;;;5037055;28;20048;-86
2023/02/18 06:25:21;;;;;;;0.50;0.50;;;8.30;99.90;;;;;;5016597;28;20053;-86
2023/02/18 06:27:47;;;;;;;0.40;0.40;;;8.30;99.90;;;;;;5043510;28;20037;-86
2023/02/18 06:30:13;;;;;;;0.88;0.88;;;8.30;99.90;;;;;;5046183;28;20090;-85
2023/02/18 06:32:38;;;;;;;0.50;0.50;;;8.50;99.90;;;;;;5033774;28;20429;-86
2023/02/18 06:35:05;;;;;;;0.50;0.50;;;8.50;99.90;;;;;;5049999;28;20037;-85
2023/02/18 06:37:31;;;;;;;;;;;9.00;99.90;;;;;;5028946;28;20136;-86
2023/02/18 06:39:56;;;;;;;0.65;0.65;;;8.80;99.90;;;;;;5027182;28;20007;-85
2023/02/18 06:42:22;;;;;;;0.45;0.43;;;8.70;99.90;;;;;;5042988;28;20044;-86
2023/02/18 06:44:48;;;;;;;1.25;1.25;;;8.70;99.90;;;;;;5042470;28;20064;-86
2023/02/18 06:47:14;;;;;;;0.73;0.73;;;8.80;99.90;;;;;;5042777;28;20043;-85
2023/02/18 06:49:40;;;;;;;0.60;0.60;;;8.80;99.90;;;;;;5040314;28;20026;-85
2023/02/18 06:52:05;;;;;;;0.63;0.63;;;8.80;99.90;;;;;;5064839;28;20045;-86
2023/02/18 06:54:32;;;;;;;0.52;0.52;;;9.00;99.90;;;;;;5049960;28;20091;-86
2023/02/18 06:56:58;;;;;;;0.47;0.47;;;9.00;99.90;;;;;;5052358;28;20037;-88
2023/02/18 06:59:24;;;;;;;0.40;0.40;;;9.00;99.90;;;;;;5034255;28;20132;-87
2023/02/18 07:01:49;;;;;;;0.35;0.35;;;9.20;99.90;;;;;;5028658;28;20041;-87
2023/02/18 07:04:15;;;;;;;0.40;0.40;;;9.10;99.90;;;;;;5052518;28;20143;-87
2023/02/18 07:06:41;;;;;;;1.23;1.23;;;9.20;99.90;;;;;;5041480;28;20386;-85
2023/02/18 07:09:08;;;;;;;0.52;0.52;;;9.20;99.90;;;;;;5037748;28;20049;-86
2023/02/18 07:11:33;;;;;;;0.40;0.40;;;9.20;99.90;;;;;;5038096;28;20445;-85
2023/02/18 07:13:59;;;;;;;0.47;0.47;;;9.50;99.90;;;;;;5029895;28;20067;-86
2023/02/18 07:16:25;;;;;;;0.73;0.73;;;9.30;99.90;;;;;;5024564;28;20502;-85
2023/02/18 07:18:51;;;;;;;0.40;0.40;;;9.30;99.90;;;;;;5038943;28;20057;-86
2023/02/18 07:21:17;;;;;;;0.35;0.35;;;9.30;99.90;;;;;;5023140;28;20514;-86
2023/02/18 07:23:42;;;;;;;1.08;1.08;;;9.50;99.90;;;;;;5045097;28;20048;-87
2023/02/18 07:26:11;;;;;;;0.50;0.50;;;9.30;99.90;;;;;;5054864;28;20045;-86
2023/02/18 07:28:38;;;;;;;0.40;0.40;;;9.40;99.90;;;;;;5041634;28;20144;-85
2023/02/18 07:31:08;;;;;;;0.50;0.50;;;9.60;99.90;;;;;;5045390;28;20033;-87
2023/02/18 07:33:33;;;;;;;0.32;0.32;;;9.50;99.90;;;;;;5026169;28;20505;-87
2023/02/18 07:36:06;;;;;;;0.40;0.40;;;9.60;99.90;;;;;;5018316;28;20079;-85
2023/02/18 07:38:31;;;;;;;0.45;0.45;;;9.50;99.90;;;;;;5048770;28;20041;-85
2023/02/18 07:40:58;;;;;;;0.43;0.43;;;9.80;99.90;;;;;;5040343;28;20044;-88
2023/02/18 07:43:23;;;;;;;;;;;9.70;99.90;;;;;;5054681;28;20359;-86
2023/02/18 07:45:49;;;;;;;0.40;0.40;;;9.90;99.90;;;;;;5031823;28;19924;-85
2023/02/18 07:48:16;;;;;;;0.47;0.47;;;9.70;99.90;;;;;;5035018;28;20053;-84
2023/02/18 07:50:43;;;;;;;0.40;0.40;;;9.60;99.90;;;;;;5045940;28;20039;-85
2023/02/18 07:53:11;;;;;;;0.45;0.45;;;9.70;99.90;;;;;;5044220;28;20037;-85
2023/02/18 07:55:49;;;;;;;0.52;0.52;;;9.80;99.90;;;;;;5042495;28;20527;-86
2023/02/18 07:58:21;;;;;;;0.30;0.30;;;9.80;99.90;;;;;;5048395;28;20044;-88
2023/02/18 08:00:48;;;;;;;0.30;0.30;;;9.70;99.90;;;;;;5045603;28;20041;-87
2023/02/18 08:03:15;;;;;;;0.50;0.50;;;9.70;99.90;;;;;;5026154;28;20041;-85
2023/02/18 08:05:41;;;;;;;0.50;0.50;;;9.70;99.90;;;;;;5020585;28;20088;-86
2023/02/18 08:08:16;;;;;;;0.50;0.50;;;9.90;99.90;;;;;;5032440;28;20053;-88
2023/02/18 08:10:42;;;;;;;0.35;0.35;;;9.90;99.90;;;;;;5025575;28;20033;-88
2023/02/18 08:13:09;;;;;;;0.30;0.30;;;9.60;99.90;;;;;;5012810;28;20364;-84
2023/02/18 08:15:35;;;;;;;0.77;0.77;;;9.60;99.90;;;;;;5048970;28;20044;-87
2023/02/18 08:18:01;;;;;;;0.50;0.50;;;9.60;99.90;;;;;;5038674;28;20128;-85
2023/02/18 08:20:27;;;;;;;0.22;0.22;;;10.00;99.90;;;;;;5016646;28;20040;-86
2023/02/18 08:22:52;;;;;;;0.40;0.40;;;9.70;99.90;;;;;;5045246;28;20059;-86
2023/02/18 08:25:18;;;;;;;0.40;0.40;;;9.70;99.90;;;;;;5045392;28;20151;-86
2023/02/18 08:27:44;;;;;;;0.30;0.30;;;9.60;99.90;;;;;;5032328;28;20036;-86
2023/02/18 08:30:10;;;;;;;0.47;0.47;;;9.60;99.90;;;;;;5047536;28;20033;-86
2023/02/18 08:32:36;;;;;;;0.40;0.40;;;9.70;99.90;;;;;;5023190;28;20040;-86
2023/02/18 08:35:02;;;;;;;0.45;0.45;;;9.50;99.90;;;;;;5015608;28;20037;-87
2023/02/18 08:37:28;;;;;;;0.50;0.50;;;9.50;99.90;;;;;;5031288;28;20041;-85
2023/02/18 08:39:54;;;;;;;0.40;0.40;;;9.70;99.90;;;;;;5031566;28;20383;-84
2023/02/18 08:42:20;;;;;;;0.60;0.60;;;9.40;99.90;;;;;;5031863;28;20055;-84
2023/02/18 08:44:46;;;;;;;0.40;0.40;;;9.50;99.90;;;;;;5020434;28;20033;-85
2023/02/18 08:47:11;;;;;;;0.50;0.50;;;9.50;99.90;;;;;;5026879;28;20044;-86
2023/02/18 08:49:37;;;;;;;0.50;0.50;;;9.40;99.90;;;;;;5042291;28;20040;-84
2023/02/18 08:52:03;;;;;;;0.40;0.40;;;9.70;99.90;;;;;;5040359;28;20489;-88
2023/02/18 08:54:30;;;;;;;0.50;0.50;;;9.30;99.90;;;;;;5025368;28;20404;-85
2023/02/18 08:56:56;;;;;;;0.40;0.40;;;9.30;99.90;;;;;;5038682;28;20040;-85
2023/02/18 08:59:22;;;;;;;;;;;9.30;99.90;;;;;;5040905;28;20490;-84
2023/02/18 09:01:48;;;;;;;0.43;0.43;;;9.20;99.90;;;;;;5044595;28;19920;-85
2023/02/18 09:04:14;;;;;;;0.40;0.40;;;9.20;99.90;;;;;;5044256;28;20053;-85
2023/02/18 09:06:40;;;;;;;0.45;0.45;;;9.30;99.90;;;;;;5040113;28;20049;-84
2023/02/18 09:09:06;;;;;;;0.40;0.40;;;9.30;99.90;;;;;;5046453;28;20130;-85
2023/02/18 09:11:32;;;;;;;0.70;0.70;;;9.30;99.90;;;;;;5025206;28;20033;-85
2023/02/18 09:13:58;;;;;;;0.40;0.40;;;9.20;99.90;;;;;;5049785;28;20044;-85
2023/02/18 09:16:23;;;;;;;0.50;0.50;;;9.20;99.90;;;;;;5047509;28;20445;-85
2023/02/18 09:18:51;;;;;;;0.40;0.40;;;9.20;99.90;;;;;;5027473;28;20120;-91
2023/02/18 09:21:19;;;;;;;0.40;0.40;;;9.20;99.90;;;;;;5048171;28;20363;-91
2023/02/18 09:23:46;;;;;;;1.42;1.08;;;9.10;99.90;;;;;;5037887;28;20037;-92
2023/02/18 09:26:15;;;;;;;1.20;1.20;;;9.30;99.90;;;;;;5055911;28;20045;-93
2023/02/18 09:28:42;;;;;;;0.50;0.50;;;9.30;99.90;;;;;;5058550;28;20037;-91
2023/02/18 09:31:14;;;;;;;0.40;0.40;;;9.30;99.90;;;;;;5039637;28;20041;-91
2023/02/18 09:33:45;;;;;;;0.40;0.40;;;9.10;99.90;;;;;;5045975;28;20128;-91
2023/02/18 09:36:12;;;;;;;0.40;0.40;;;9.20;99.90;;;;;;5037293;28;20052;-87
2023/02/18 09:38:39;;;;;;;0.50;0.50;;;9.20;99.90;;;;;;5051565;28;20041;-90
2023/02/18 09:41:12;;;;;;;0.30;0.30;;;9.20;99.90;;;;;;5018915;28;20051;-87
2023/02/18 09:43:46;;;;;;;0.40;0.40;;;9.20;99.90;;;;;;5025951;28;20041;-86
2023/02/18 09:46:23;;;;;;;0.40;0.40;;;9.40;99.90;;;;;;5043615;28;20518;-85
2023/02/18 09:48:51;;;;;;;0.50;0.50;;;9.20;99.90;;;;;;5042270;28;20053;-85
2023/02/18 09:51:18;;;;;;;0.40;0.40;;;9.30;99.90;;;;;;5051092;28;20119;-86
2023/02/18 09:53:45;;;;;;;0.40;0.40;;;9.20;99.90;;;;;;5045223;28;20041;-86
2023/02/18 09:56:22;;;;;;;0.40;0.40;;;9.30;99.90;;;;;;5049076;28;20122;-85
2023/02/18 09:58:49;;;;;;;1.00;1.00;;;9.30;99.90;;;;;;5049151;28;20106;-87
2023/02/18 10:01:28;;;;;;;0.40;0.40;;;9.40;99.90;;;;;;5027430;28;20083;-85
2023/02/18 10:03:58;;;;;;;0.30;0.30;;;9.50;99.90;;;;;;5045477;28;20053;-86
2023/02/18 10:06:31;;;;;;;0.32;0.32;;;9.40;99.90;;;;;;5045615;28;20126;-85
2023/02/18 10:09:02;;;;;;;0.38;0.38;;;9.30;99.90;;;;;;5059800;28;20045;-87
2023/02/18 10:11:29;;;;;;;0.40;0.40;;;9.30;99.90;;;;;;5051521;28;20052;-85
2023/02/18 10:13:56;;;;;;;0.32;0.32;;;9.30;99.90;;;;;;5029458;28;20030;-84
2023/02/18 10:16:23;;;;;;;0.50;0.50;;;9.60;99.90;;;;;;5028599;28;20049;-85
2023/02/18 10:19:28;;;;;;;0.32;0.32;;;9.50;99.90;;;;;;5053181;28;20427;-85
2023/02/18 10:21:55;;;;;;;0.50;0.50;;;9.60;99.90;;;;;;5059526;28;20102;-87
2023/02/18 10:24:23;;;;;;;0.43;0.43;;;9.60;99.90;;;;;;5038630;28;20084;-86
2023/02/18 10:26:49;;;;;;;0.40;0.40;;;9.50;99.90;;;;;;5028661;28;20517;-87
2023/02/18 10:29:18;;;;;;;0.40;0.40;;;9.60;99.90;;;;;;5036823;28;20607;-86
2023/02/18 10:32:03;;;;;;;0.30;0.30;;;9.70;99.90;;;;;;5047589;28;20108;-86
2023/02/18 10:34:52;;;;;;;0.63;0.63;;;9.60;99.90;;;;;;5043466;28;20144;-86
2023/02/18 10:37:36;;;;;;;0.30;0.30;;;9.70;99.90;;;;;;5042811;28;20494;-84
2023/02/18 10:40:12;;;;;;;0.50;0.50;;;9.60;99.90;;;;;;5038659;28;20045;-85
2023/02/18 10:43:01;;;;;;;0.40;0.40;;;9.80;99.90;;;;;;5029053;28;20124;-85
2023/02/18 10:45:58;;;;;;;0.40;0.40;;;9.80;99.90;;;;;;5062048;28;20059;-86
2023/02/18 10:48:32;;;;;;;0.50;0.50;;;9.90;99.90;;;;;;5043687;28;20056;-84
2023/02/18 10:51:03;;;;;;;0.40;0.40;;;9.90;99.90;;;;;;5041615;28;20048;-85
2023/02/18 10:53:37;;;;;;;0.40;0.40;;;10.10;99.90;;;;;;5045568;28;20514;-87
2023/02/18 10:56:05;;;;;;;0.50;0.50;;;10.00;99.90;;;;;;5042353;28;20072;-86
2023/02/18 10:58:42;;;;;;;0.38;0.38;;;10.10;99.90;;;;;;5040510;28;20063;-88
2023/02/18 11:01:18;;;;;;;0.40;0.40;;;10.40;99.90;;;;;;5044919;28;20040;-86
2023/02/18 11:03:46;;;;;;;0.40;0.40;;;10.40;99.90;;;;;;5036950;28;20053;-86
2023/02/18 11:06:46;;;;;;;1.48;1.40;;;10.50;99.90;;;;;;5038809;28;20048;-85
2023/02/18 11:09:50;;;;;;;0.63;0.63;;;10.40;99.90;;;;;;5043721;28;20091;-84
2023/02/18 11:12:21;;;;;;;0.40;0.40;;;10.60;99.90;;;;;;5029670;28;20115;-85
2023/02/18 11:14:50;;;;;;;0.60;0.60;;;10.60;99.90;;;;;;5024696;28;20048;-86
2023/02/18 11:17:29;;;;;;;0.40;0.40;;;10.80;99.90;;;;;;5027900;28;20049;-85
2023/02/18 11:20:00;;;;;;;0.65;0.65;;;10.70;99.90;;;;;;5028162;28;20486;-87
2023/02/18 11:22:32;;;;;;;0.50;0.50;;;10.70;99.90;;;;;;5025073;28;20053;-85
2023/02/18 11:25:00;;;;;;;0.40;0.40;;;10.80;99.90;;;;;;5029041;28;20053;-87
2023/02/18 11:27:31;;;;;;;2.92;1.58;;;10.90;99.90;;;;;;5014407;28;20513;-88
2023/02/18 11:30:06;;;;;;;0.32;0.32;;;11.00;99.90;;;;;;5024662;28;20067;-86
2023/02/18 11:32:35;;;;;;;2.33;2.15;;;11.00;99.90;;;;;;5026906;28;20063;-86
2023/02/18 11:35:04;;;;;;;0.30;0.30;;;11.10;99.90;;;;;;5007750;28;20037;-87
2023/02/18 11:37:33;;;;;;;2.28;2.17;;;10.80;99.90;;;;;;5027993;28;20127;-86
2023/02/18 11:39:58;;;;;;;0.30;0.30;;;10.90;99.90;;;;;;4996716;28;20095;-85
2023/02/18 11:42:26;;;;;;;0.40;0.40;;;10.90;99.90;;;;;;5019454;28;20053;-84
2023/02/18 11:45:00;;;;;;;0.32;0.32;;;10.90;99.90;;;;;;5041582;28;20037;-84
2023/02/18 11:47:34;;;;;;;0.30;0.30;;;10.90;99.90;;;;;;5035750;28;20406;-85
2023/02/18 11:50:09;;;;;;;0.43;0.43;;;11.00;99.90;;;;;;5055628;28;20378;-84
2023/02/18 11:52:42;;;;;;;0.40;0.40;;;11.00;99.90;;;;;;5049426;28;20055;-85
2023/02/18 11:55:29;;;;;;;0.60;0.60;;;11.10;99.90;;;;;;5023795;28;20046;-87
2023/02/18 11:58:01;;;;;;;1.40;0.80;;;11.00;99.90;;;;;;5039588;28;20056;-86
2023/02/18 12:00:44;;;;;;;0.60;0.60;;;11.00;99.90;;;;;;5027136;28;20116;-86
2023/02/18 12:03:31;;;;;;;1.02;0.88;;;11.10;99.90;;;;;;5046477;28;20059;-85
2023/02/18 12:06:01;;;;;;;0.38;0.38;;;11.10;99.90;;;;;;5022290;28;20524;-87
2023/02/18 12:08:31;;;;;;;0.35;0.35;;;11.00;99.90;;;;;;5044407;28;20089;-85
2023/02/18 12:11:14;;;;;;;0.60;0.60;;;11.10;99.90;;;;;;5026302;28;20095;-87
2023/02/18 12:13:54;;;;;;;0.43;0.43;;;11.10;99.90;;;;;;5044999;28;20044;-85
2023/02/18 12:16:44;;;;;;;0.50;0.50;;;11.00;99.90;;;;;;5038392;28;20071;-87
2023/02/18 12:19:29;;;;;;;0.65;0.65;;;11.00;99.90;;;;;;5049899;28;20058;-87
2023/02/18 12:22:12;;;;;;;0.30;0.30;;;11.00;99.90;;;;;;5050333;28;20041;-86
2023/02/18 12:25:12;;;;;;;0.60;0.60;;;11.00;99.90;;;;;;5013083;28;20114;-87
2023/02/18 12:27:55;;;;;;;2.30;0.70;;;11.10;99.90;;;;;;5045133;28;20045;-85
2023/02/18 12:30:46;;;;;;;0.30;0.30;;;11.10;99.90;;;;;;5044752;28;20143;-84
2023/02/18 12:33:22;;;;;;;1.25;1.25;;;11.10;99.90;;;;;;5033206;28;20041;-86
2023/02/18 12:35:59;;;;;;;0.50;0.50;;;11.10;99.90;;;;;;5043054;28;20049;-85
2023/02/18 12:38:40;;;;;;;0.50;0.50;;;11.20;99.90;;;;;;5024559;28;20057;-86
2023/02/18 12:41:59;;;;;;;0.30;0.30;;;11.30;99.90;;;;;;5046991;28;20132;-86
2023/02/18 12:44:51;;;;;;;0.40;0.40;;;11.40;99.90;;;;;;4993905;28;20062;-87
2023/02/18 12:47:26;;;;;;;0.40;0.40;;;11.50;99.90;;;;;;4976752;28;20057;-86
2023/02/18 12:50:28;;;;;;;1.05;1.05;;;11.60;99.90;;;;;;5031629;28;20045;-86
2023/02/18 12:53:27;;;;;;;5.15;0.60;;;11.60;99.90;;;;;;5048728;28;20049;-85
2023/02/18 12:56:07;;;;;;;0.30;0.30;;;11.60;99.90;;;;;;5033173;28;20059;-86
2023/02/18 12:59:12;;;;;;;0.32;0.32;;;11.70;99.90;;;;;;5046375;28;20731;-86
2023/02/18 13:01:56;;;;;;;0.70;0.70;;;11.70;99.90;;;;;;5045312;28;20060;-88
2023/02/18 13:04:40;;;;;;;0.35;0.35;;;11.60;99.90;;;;;;5050056;28;20040;-84
2023/02/18 13:07:34;;;;;;;0.90;0.90;;;11.50;99.90;;;;;;5026424;28;20064;-87
2023/02/18 13:10:23;;;;;;;0.93;0.45;;;11.50;99.90;;;;;;5047085;28;20072;-86
2023/02/18 13:13:00;;;;;;;0.45;0.45;;;11.50;99.90;;;;;;5066363;28;20048;-87
2023/02/18 13:15:49;;;;;;;0.45;0.45;;;11.40;99.90;;;;;;5048248;28;20049;-84
2023/02/18 13:18:20;;;;;;;0.38;0.38;;;11.40;99.90;;;;;;5050227;28;20045;-82
2023/02/18 13:21:01;;;;;;;0.30;0.30;;;11.40;99.90;;;;;;5044005;28;20072;-84
2023/02/18 13:23:36;;;;;;;0.22;0.22;;;11.40;99.90;;;;;;5030804;28;20037;-85